createdAt,value
2019-03-31T00:01:42.969Z,12.25
2019-03-31T00:04:12.557Z,11.57
2019-03-31T00:06:43.514Z,11.57
2019-03-31T00:09:12.995Z,13.15
2019-03-31T00:11:43.561Z,11.08
2019-03-31T00:14:13.193Z,11.75
2019-03-31T00:16:42.719Z,13.00
2019-03-31T00:19:12.162Z,13.28
2019-03-31T00:21:41.702Z,12.85
2019-03-31T00:24:11.233Z,12.18
2019-03-31T00:26:41.826Z,11.88
2019-03-31T00:29:11.355Z,13.70
2019-03-31T00:31:40.805Z,13.78
2019-03-31T00:34:11.364Z,14.07
2019-03-31T00:36:40.969Z,14.87
2019-03-31T00:39:11.684Z,12.60
2019-03-31T00:41:41.331Z,13.50
2019-03-31T00:44:10.833Z,13.45
2019-03-31T00:46:40.469Z,13.70
2019-03-31T00:49:09.934Z,16.30
2019-03-31T00:51:39.492Z,14.10
2019-03-31T00:54:10.932Z,14.28
2019-03-31T00:56:41.467Z,14.93
2019-03-31T00:59:10.878Z,13.75
2019-03-31T01:01:47.129Z,13.77
2019-03-31T01:04:19.565Z,15.47
2019-03-31T01:06:52.161Z,13.83
2019-03-31T01:09:25.301Z,14.40
2019-03-31T01:11:55.375Z,13.32
2019-03-31T01:14:25.401Z,13.15
2019-03-31T01:16:56.994Z,15.20
2019-03-31T01:19:27.704Z,13.22
2019-03-31T01:21:58.289Z,14.70
2019-03-31T01:24:27.897Z,14.75
2019-03-31T01:26:57.436Z,13.53
2019-03-31T01:29:27.213Z,13.08
2019-03-31T01:31:56.728Z,12.60
2019-03-31T01:34:26.376Z,14.35
2019-03-31T01:36:56.023Z,13.03
2019-03-31T01:39:26.813Z,13.53
2019-03-31T01:41:56.474Z,13.60
2019-03-31T01:44:27.084Z,13.35
2019-03-31T01:46:56.770Z,12.35
2019-03-31T01:49:26.341Z,13.83
2019-03-31T01:51:56.882Z,13.45
2019-03-31T01:54:26.428Z,13.68
2019-03-31T01:56:56.118Z,12.07
2019-03-31T01:59:25.685Z,13.80
2019-03-31T02:02:03.972Z,13.28
2019-03-31T02:04:27.012Z,12.15
2019-03-31T02:06:56.667Z,13.98
2019-03-31T02:09:26.164Z,13.03
2019-03-31T02:11:55.777Z,13.35
2019-03-31T02:14:25.352Z,13.03
2019-03-31T02:16:54.984Z,13.15
2019-03-31T02:19:24.492Z,13.68
2019-03-31T02:21:54.010Z,13.08
2019-03-31T02:24:24.526Z,13.03
2019-03-31T02:26:54.101Z,14.07
2019-03-31T02:29:24.581Z,12.65
2019-03-31T02:31:54.174Z,12.07
2019-03-31T02:34:23.657Z,12.30
2019-03-31T02:36:53.186Z,13.18
2019-03-31T02:39:23.797Z,13.98
2019-03-31T02:41:53.396Z,12.78
2019-03-31T02:44:24.953Z,13.45
2019-03-31T02:46:54.511Z,12.60
2019-03-31T02:49:24.159Z,13.30
2019-03-31T02:51:53.830Z,14.68
2019-03-31T02:54:23.454Z,12.95
2019-03-31T02:56:53.381Z,15.80
2019-03-31T02:59:23.748Z,13.70
2019-03-31T03:01:54.498Z,13.75
2019-03-31T03:04:25.061Z,14.03
2019-03-31T03:06:56.381Z,13.95
2019-03-31T03:09:27.282Z,14.25
2019-03-31T03:11:58.386Z,14.03
2019-03-31T03:14:29.993Z,13.30
2019-03-31T03:16:59.571Z,13.68
2019-03-31T03:19:30.236Z,12.63
2019-03-31T03:21:59.733Z,12.95
2019-03-31T03:24:29.338Z,13.90
2019-03-31T03:26:58.754Z,13.95
2019-03-31T03:29:28.160Z,14.33
2019-03-31T03:31:58.642Z,14.25
2019-03-31T03:34:28.364Z,13.85
2019-03-31T03:36:59.901Z,13.28
2019-03-31T03:39:29.355Z,14.47
2019-03-31T03:41:59.875Z,13.83
2019-03-31T03:44:29.279Z,13.60
2019-03-31T03:46:58.764Z,14.20
2019-03-31T03:49:28.186Z,13.53
2019-03-31T03:51:58.764Z,12.78
2019-03-31T03:54:28.278Z,13.15
2019-03-31T03:56:57.824Z,12.13
2019-03-31T03:59:27.261Z,13.62
2019-03-31T04:01:56.694Z,12.75
2019-03-31T04:04:26.073Z,11.80
2019-03-31T04:06:55.544Z,12.93
2019-03-31T04:09:24.917Z,12.05
2019-03-31T04:11:54.374Z,14.58
2019-03-31T04:14:23.864Z,13.30
2019-03-31T04:16:53.312Z,13.53
2019-03-31T04:19:22.768Z,13.55
2019-03-31T04:21:52.126Z,12.93
2019-03-31T04:24:21.530Z,12.88
2019-03-31T04:26:50.905Z,13.15
2019-03-31T04:29:20.304Z,14.50
2019-03-31T04:31:49.725Z,13.20
2019-03-31T04:34:19.162Z,12.70
2019-03-31T04:36:48.529Z,13.90
2019-03-31T04:39:17.908Z,14.50
2019-03-31T04:41:47.553Z,12.43
2019-03-31T04:44:17.090Z,14.43
2019-03-31T04:46:46.537Z,13.90
2019-03-31T04:49:16.069Z,13.00
2019-03-31T04:51:45.635Z,13.55
2019-03-31T04:54:15.086Z,13.72
2019-03-31T04:56:44.852Z,14.07
2019-03-31T04:59:14.285Z,14.75
2019-03-31T05:01:43.815Z,13.65
2019-03-31T05:04:13.260Z,14.75
2019-03-31T05:06:42.740Z,13.08
2019-03-31T05:09:12.292Z,13.90
2019-03-31T05:11:41.684Z,13.75
2019-03-31T05:14:11.062Z,13.85
2019-03-31T05:16:40.455Z,12.05
2019-03-31T05:19:09.922Z,12.60
2019-03-31T05:21:39.332Z,12.55
2019-03-31T05:24:08.723Z,12.58
2019-03-31T05:26:38.148Z,12.58
2019-03-31T05:29:08.656Z,13.10
2019-03-31T05:31:38.181Z,12.73
2019-03-31T05:34:18.501Z,11.97
2019-03-31T05:36:38.864Z,11.40
2019-03-31T05:39:08.565Z,13.32
2019-03-31T05:41:38.223Z,11.93
2019-03-31T05:44:07.770Z,13.15
2019-03-31T05:46:38.561Z,12.23
2019-03-31T05:49:08.068Z,13.75
2019-03-31T05:51:43.557Z,13.00
2019-03-31T05:54:14.056Z,12.95
2019-03-31T05:56:44.895Z,13.22
2019-03-31T05:59:14.301Z,12.37
2019-03-31T06:01:43.729Z,12.90
2019-03-31T06:04:13.235Z,12.68
2019-03-31T06:06:44.742Z,12.17
2019-03-31T06:09:14.254Z,12.70
2019-03-31T06:11:46.935Z,12.97
2019-03-31T06:14:16.514Z,12.70
2019-03-31T06:16:46.056Z,14.50
2019-03-31T06:19:15.589Z,11.93
2019-03-31T06:21:46.064Z,12.83
2019-03-31T06:24:15.646Z,12.50
2019-03-31T06:26:45.200Z,14.00
2019-03-31T06:29:14.633Z,12.35
2019-03-31T06:31:46.836Z,12.07
2019-03-31T06:34:21.154Z,11.67
2019-03-31T06:36:50.696Z,13.10
2019-03-31T06:39:20.093Z,12.90
2019-03-31T06:41:50.796Z,12.30
2019-03-31T06:44:20.179Z,12.73
2019-03-31T06:46:49.823Z,12.60
2019-03-31T06:49:19.363Z,11.80
2019-03-31T06:51:48.880Z,12.50
2019-03-31T06:54:20.024Z,11.63
2019-03-31T06:56:49.469Z,12.90
2019-03-31T06:59:18.992Z,12.27
2019-03-31T07:01:48.454Z,12.73
2019-03-31T07:04:20.137Z,13.80
2019-03-31T07:06:49.680Z,13.47
2019-03-31T07:12:45.319Z,13.30
2019-03-31T07:15:16.290Z,13.73
2019-03-31T07:17:45.929Z,13.43
2019-03-31T07:20:17.219Z,14.27
2019-03-31T07:22:54.221Z,13.53
2019-03-31T07:25:23.174Z,14.60
2019-03-31T07:27:53.026Z,14.17
2019-03-31T07:30:22.724Z,14.60
2019-03-31T07:32:54.314Z,13.90
2019-03-31T07:35:23.781Z,13.37
2019-03-31T07:37:53.272Z,13.33
2019-03-31T07:40:24.914Z,13.40
2019-03-31T07:42:54.495Z,13.43
2019-03-31T07:45:24.144Z,13.10
2019-03-31T07:47:53.635Z,14.50
2019-03-31T07:50:23.204Z,13.70
2019-03-31T07:52:52.660Z,15.20
2019-03-31T07:55:25.341Z,14.03
2019-03-31T07:57:54.858Z,14.17
2019-03-31T08:00:28.664Z,14.03
2019-03-31T08:03:00.257Z,15.00
2019-03-31T08:05:33.346Z,14.03
2019-03-31T08:08:01.572Z,15.40
2019-03-31T08:10:33.771Z,14.30
2019-03-31T08:13:08.156Z,15.40
2019-03-31T08:15:38.678Z,14.70
2019-03-31T08:18:10.210Z,14.90
2019-03-31T08:20:40.691Z,15.80
2019-03-31T08:23:10.331Z,15.70
2019-03-31T08:25:39.956Z,16.63
2019-03-31T08:28:10.574Z,15.80
2019-03-31T08:30:42.087Z,18.40
2019-03-31T08:33:11.776Z,15.93
2019-03-31T08:35:47.677Z,16.00
2019-03-31T08:38:12.637Z,16.00
2019-03-31T08:40:42.032Z,17.30
2019-03-31T08:43:11.601Z,16.40
2019-03-31T08:45:41.213Z,15.73
2019-03-31T08:48:10.668Z,17.07
2019-03-31T08:50:46.131Z,16.80
2019-03-31T08:53:15.807Z,14.87
2019-03-31T08:55:45.270Z,16.50
2019-03-31T08:58:14.732Z,15.70
2019-03-31T09:00:49.096Z,19.13
2019-03-31T09:03:19.191Z,17.27
2019-03-31T09:06:01.689Z,17.63
2019-03-31T09:10:23.344Z,18.23
2019-03-31T09:11:20.012Z,16.73
2019-03-31T09:13:49.737Z,17.53
2019-03-31T09:16:19.406Z,17.60
2019-03-31T09:18:49.145Z,21.53
2019-03-31T09:21:18.850Z,17.90
2019-03-31T09:23:48.542Z,18.47
2019-03-31T09:26:18.252Z,18.20
2019-03-31T09:28:47.810Z,17.97
2019-03-31T09:31:17.457Z,17.63
2019-03-31T09:33:47.046Z,19.07
2019-03-31T09:36:16.961Z,19.77
2019-03-31T09:38:48.504Z,19.27
2019-03-31T09:41:17.954Z,18.93
2019-03-31T09:43:47.455Z,19.17
2019-03-31T09:46:18.102Z,16.60
2019-03-31T09:48:47.606Z,16.50
2019-03-31T09:51:17.178Z,18.00
2019-03-31T09:53:46.840Z,18.10
2019-03-31T09:56:17.417Z,19.67
2019-03-31T09:58:49.078Z,17.70
2019-03-31T10:01:19.647Z,19.13
2019-03-31T10:03:49.274Z,18.87
2019-03-31T10:06:29.682Z,19.50
2019-03-31T10:08:50.437Z,19.23
2019-03-31T10:11:19.997Z,19.17
2019-03-31T10:13:49.502Z,18.87
2019-03-31T10:16:20.122Z,19.90
2019-03-31T10:18:49.670Z,18.77
2019-03-31T10:21:19.218Z,17.30
2019-03-31T10:23:48.727Z,19.33
2019-03-31T10:26:31.087Z,18.00
2019-03-31T10:28:49.641Z,18.50
2019-03-31T10:31:20.273Z,20.20
2019-03-31T10:33:49.857Z,19.23
2019-03-31T10:36:19.651Z,17.70
2019-03-31T10:38:51.355Z,18.70
2019-03-31T10:41:20.870Z,19.00
2019-03-31T10:43:51.570Z,18.50
2019-03-31T10:46:21.221Z,20.57
2019-03-31T10:48:50.810Z,18.63
2019-03-31T10:51:20.475Z,19.13
2019-03-31T10:53:51.105Z,17.63
2019-03-31T10:56:21.680Z,16.73
2019-03-31T10:58:52.399Z,16.53
2019-03-31T11:01:22.909Z,17.47
2019-03-31T11:03:52.589Z,16.03
2019-03-31T11:06:22.186Z,17.70
2019-03-31T11:08:51.791Z,18.23
2019-03-31T11:11:21.303Z,14.47
2019-03-31T11:13:51.947Z,16.77
2019-03-31T11:16:21.581Z,14.27
2019-03-31T11:18:51.183Z,11.17
2019-03-31T11:21:26.041Z,14.47
2019-03-31T11:23:55.698Z,15.20
2019-03-31T11:26:25.254Z,11.43
2019-03-31T11:28:56.313Z,12.83
2019-03-31T11:31:26.922Z,13.03
2019-03-31T11:33:57.553Z,13.27
2019-03-31T11:36:27.096Z,11.00
2019-03-31T11:38:56.666Z,12.37
2019-03-31T11:41:26.255Z,11.80
2019-03-31T11:43:55.761Z,9.87
2019-03-31T11:46:27.065Z,11.60
2019-03-31T11:48:58.667Z,11.10
2019-03-31T11:51:29.214Z,9.00
2019-03-31T11:53:58.845Z,7.13
2019-03-31T11:56:28.395Z,8.13
2019-03-31T11:58:57.845Z,6.73
2019-03-31T12:01:27.474Z,7.10
2019-03-31T12:03:57.090Z,10.30
2019-03-31T12:06:26.682Z,9.70
2019-03-31T12:08:56.295Z,8.53
2019-03-31T12:11:25.846Z,9.83
2019-03-31T12:13:56.362Z,9.33
2019-03-31T12:16:25.861Z,10.23
2019-03-31T12:18:55.359Z,10.60
2019-03-31T12:21:25.936Z,9.37
2019-03-31T12:23:56.217Z,10.23
2019-03-31T12:26:25.848Z,10.53
2019-03-31T12:28:56.401Z,9.40
2019-03-31T12:31:26.970Z,9.00
2019-03-31T12:33:56.555Z,10.00
2019-03-31T12:36:26.180Z,9.63
2019-03-31T12:38:56.771Z,9.23
2019-03-31T12:41:26.331Z,9.20
2019-03-31T12:43:55.899Z,8.70
2019-03-31T12:46:25.468Z,8.90
2019-03-31T12:48:55.078Z,9.17
2019-03-31T12:51:24.735Z,8.47
2019-03-31T12:53:55.297Z,9.47
2019-03-31T12:56:24.949Z,9.17
2019-03-31T12:58:54.459Z,9.80
2019-03-31T13:01:24.246Z,9.57
2019-03-31T13:03:54.220Z,9.50
2019-03-31T13:06:23.858Z,9.60
2019-03-31T13:08:53.459Z,9.50
2019-03-31T13:11:23.106Z,10.63
2019-03-31T13:13:52.669Z,10.10
2019-03-31T13:16:22.274Z,9.23
2019-03-31T13:18:53.906Z,10.30
2019-03-31T13:21:23.505Z,10.63
2019-03-31T13:23:53.115Z,12.10
2019-03-31T13:26:22.642Z,10.73
2019-03-31T13:28:53.254Z,9.33
2019-03-31T13:31:22.807Z,9.60
2019-03-31T13:33:52.375Z,10.20
2019-03-31T13:36:21.862Z,10.30
2019-03-31T13:38:52.348Z,10.20
2019-03-31T13:41:22.000Z,9.33
2019-03-31T13:43:51.631Z,9.23
2019-03-31T13:50:00.929Z,9.50
2019-03-31T13:52:30.558Z,9.80
2019-03-31T13:55:00.386Z,8.00
2019-03-31T13:57:30.303Z,9.10
2019-03-31T14:00:01.436Z,9.50
2019-03-31T14:02:31.065Z,8.40
2019-03-31T14:05:00.666Z,9.23
2019-03-31T14:07:31.224Z,8.67
2019-03-31T14:10:01.955Z,8.80
2019-03-31T14:12:31.645Z,8.53
2019-03-31T14:15:02.359Z,8.73
2019-03-31T14:17:32.968Z,7.83
2019-03-31T14:20:03.798Z,7.40
2019-03-31T14:22:34.366Z,6.73
2019-03-31T14:25:06.349Z,6.43
2019-03-31T14:27:36.063Z,7.60
2019-03-31T14:30:06.325Z,6.40
2019-03-31T14:32:37.104Z,6.53
2019-03-31T14:35:07.777Z,6.27
2019-03-31T14:37:39.450Z,6.10
2019-03-31T14:40:10.142Z,6.67
2019-03-31T14:42:40.701Z,6.80
2019-03-31T14:45:13.071Z,5.80
2019-03-31T14:47:42.970Z,6.13
2019-03-31T14:50:16.653Z,6.60
2019-03-31T14:52:48.248Z,6.50
2019-03-31T14:55:17.832Z,6.27
2019-03-31T14:57:47.306Z,6.83
2019-03-31T15:00:16.919Z,6.27
2019-03-31T15:02:46.574Z,5.53
2019-03-31T15:05:17.987Z,5.50
2019-03-31T15:07:47.600Z,5.60
2019-03-31T15:10:17.185Z,6.37
2019-03-31T15:12:46.805Z,6.67
2019-03-31T15:15:16.783Z,5.97
2019-03-31T15:17:47.218Z,6.77
2019-03-31T15:20:17.011Z,6.83
2019-03-31T15:22:46.493Z,5.47
2019-03-31T15:25:16.152Z,6.90
2019-03-31T15:27:45.877Z,5.60
2019-03-31T15:30:15.576Z,5.27
2019-03-31T15:32:45.217Z,5.70
2019-03-31T15:35:14.830Z,5.60
2019-03-31T15:37:46.236Z,5.90
2019-03-31T15:40:15.901Z,5.40
2019-03-31T15:42:45.571Z,5.87
2019-03-31T15:45:16.292Z,5.40
2019-03-31T15:47:50.057Z,6.50
2019-03-31T15:50:20.814Z,5.60
2019-03-31T15:52:52.748Z,6.17
2019-03-31T15:55:22.384Z,5.73
2019-03-31T15:57:52.251Z,5.10
2019-03-31T16:00:21.965Z,5.10
2019-03-31T16:02:51.662Z,6.00
2019-03-31T16:05:21.295Z,5.30
2019-03-31T16:07:56.977Z,5.60
2019-03-31T16:10:28.186Z,6.27
2019-03-31T16:12:58.305Z,5.07
2019-03-31T16:15:27.509Z,5.27
2019-03-31T16:17:56.531Z,5.60
2019-03-31T16:20:25.526Z,5.33
2019-03-31T16:22:54.513Z,5.90
2019-03-31T16:25:27.402Z,6.10
2019-03-31T16:27:57.495Z,5.40
2019-03-31T16:30:26.505Z,5.30
2019-03-31T16:32:55.452Z,5.60
2019-03-31T16:35:25.406Z,4.60
2019-03-31T16:37:55.939Z,4.80
2019-03-31T16:40:26.392Z,5.67
2019-03-31T16:42:55.414Z,5.50
2019-03-31T16:45:24.846Z,5.00
2019-03-31T16:47:54.897Z,4.97
2019-03-31T16:50:24.952Z,5.40
2019-03-31T16:52:54.093Z,4.70
2019-03-31T16:55:23.173Z,5.07
2019-03-31T16:57:52.198Z,5.50
2019-03-31T17:00:21.197Z,4.77
2019-03-31T17:02:50.188Z,5.67
2019-03-31T17:05:22.121Z,5.30
2019-03-31T17:07:49.921Z,6.13
2019-03-31T17:10:19.035Z,5.27
2019-03-31T17:12:48.987Z,6.20
2019-03-31T17:15:18.010Z,5.93
2019-03-31T17:17:46.998Z,5.90
2019-03-31T17:20:17.137Z,5.87
2019-03-31T17:22:50.610Z,5.20
2019-03-31T17:25:19.702Z,5.50
2019-03-31T17:27:48.856Z,5.73
2019-03-31T17:30:19.139Z,5.72
2019-03-31T17:32:48.696Z,5.77
2019-03-31T17:35:20.621Z,5.83
2019-03-31T17:37:49.863Z,5.40
2019-03-31T17:40:19.309Z,5.37
2019-03-31T17:42:49.553Z,5.30
2019-03-31T17:45:18.671Z,5.67
2019-03-31T17:47:48.068Z,5.10
2019-03-31T17:50:19.503Z,5.90
2019-03-31T17:52:49.569Z,5.87
2019-03-31T17:55:18.689Z,4.93
2019-03-31T17:57:47.774Z,5.70
2019-03-31T18:00:17.211Z,5.00
2019-03-31T18:02:46.456Z,5.17
2019-03-31T18:05:16.709Z,5.27
2019-03-31T18:07:45.733Z,5.20
2019-03-31T18:10:21.088Z,5.00
2019-03-31T18:12:46.450Z,5.10
2019-03-31T18:15:15.498Z,5.33
2019-03-31T18:17:44.500Z,5.37
2019-03-31T18:20:13.589Z,5.90
2019-03-31T18:22:42.614Z,6.10
2019-03-31T18:25:11.760Z,6.00
2019-03-31T18:27:40.694Z,6.23
2019-03-31T18:30:10.606Z,6.40
2019-03-31T18:32:39.535Z,5.93
2019-03-31T18:35:08.573Z,6.33
2019-03-31T18:37:38.506Z,6.67
2019-03-31T18:40:09.858Z,6.50
2019-03-31T18:42:39.947Z,6.70
2019-03-31T18:45:09.082Z,6.10
2019-03-31T18:47:39.093Z,6.67
2019-03-31T18:50:08.174Z,6.17
2019-03-31T18:52:38.388Z,7.63
2019-03-31T18:55:17.009Z,6.90
2019-03-31T18:58:11.117Z,7.77
2019-03-31T19:01:08.294Z,8.53
2019-03-31T19:03:48.336Z,7.13
2019-03-31T19:06:48.201Z,9.33
2019-03-31T19:09:23.713Z,7.17
2019-03-31T19:12:01.662Z,6.50
2019-03-31T19:15:02.152Z,6.33
2019-03-31T19:17:52.292Z,5.80
2019-03-31T19:20:29.882Z,15.17
2019-03-31T19:23:16.343Z,7.53
2019-03-31T19:26:03.762Z,8.03
2019-03-31T19:28:51.871Z,7.97
2019-03-31T19:31:31.072Z,6.20
2019-03-31T19:34:11.956Z,7.70
2019-03-31T19:37:02.067Z,5.87
2019-03-31T19:39:55.289Z,6.37
2019-03-31T19:43:03.964Z,7.30
2019-03-31T19:45:55.848Z,6.43
2019-03-31T19:48:50.121Z,6.57
2019-03-31T19:51:38.311Z,6.60
2019-03-31T19:54:21.718Z,8.90
2019-03-31T19:57:19.061Z,7.53
2019-03-31T20:00:03.786Z,8.30
2019-03-31T20:02:57.910Z,7.03
2019-03-31T20:05:44.446Z,9.10
2019-03-31T20:08:31.318Z,9.10
2019-03-31T20:11:19.352Z,9.53
2019-03-31T20:14:07.376Z,10.10
2019-03-31T20:16:53.240Z,9.10
2019-03-31T20:19:33.309Z,9.50
2019-03-31T20:22:27.557Z,9.47
2019-03-31T20:25:24.391Z,9.80
2019-03-31T20:28:11.198Z,10.90
2019-03-31T20:31:05.174Z,10.50
2019-03-31T20:33:49.901Z,9.30
2019-03-31T20:36:25.877Z,10.80
2019-03-31T20:39:12.694Z,10.90
2019-03-31T20:41:59.137Z,10.27
2019-03-31T20:44:28.069Z,10.30
2019-03-31T20:46:57.097Z,10.70
2019-03-31T20:49:26.112Z,11.57
2019-03-31T20:51:55.081Z,11.97
2019-03-31T20:54:23.980Z,12.23
2019-03-31T20:56:52.903Z,12.57
2019-03-31T20:59:21.845Z,11.03
2019-03-31T21:01:50.842Z,11.50
2019-03-31T21:04:19.822Z,11.93
2019-03-31T21:06:48.842Z,12.90
2019-03-31T21:09:17.897Z,13.97
2019-03-31T21:11:46.777Z,12.63
2019-03-31T21:14:16.058Z,13.27
2019-03-31T21:16:45.127Z,12.10
2019-03-31T21:19:14.188Z,12.97
2019-03-31T21:21:43.268Z,14.23
2019-03-31T21:24:12.264Z,14.00
2019-03-31T21:26:41.233Z,13.27
2019-03-31T21:29:10.282Z,14.70
2019-03-31T21:31:39.328Z,14.67
2019-03-31T21:34:08.452Z,14.20
2019-03-31T21:36:37.467Z,14.93
2019-03-31T21:39:07.781Z,14.38
2019-03-31T21:41:36.858Z,15.07
2019-03-31T21:44:05.945Z,15.70
2019-03-31T21:46:34.874Z,16.12
2019-03-31T21:49:03.945Z,15.73
2019-03-31T21:51:32.930Z,14.60
2019-03-31T21:54:01.972Z,14.53
2019-03-31T21:56:30.953Z,15.40
2019-03-31T21:59:00.005Z,15.80
2019-03-31T22:01:29.110Z,17.33
2019-03-31T22:03:58.202Z,17.10
2019-03-31T22:06:28.329Z,17.03
2019-03-31T22:08:57.352Z,18.25
2019-03-31T22:11:26.382Z,18.10
2019-03-31T22:13:55.323Z,17.97
2019-03-31T22:16:24.397Z,16.73
2019-03-31T22:18:53.420Z,18.17
2019-03-31T22:21:24.522Z,18.17
2019-03-31T22:23:58.118Z,17.73
2019-03-31T22:26:25.282Z,17.37
2019-03-31T22:28:54.399Z,18.12
2019-03-31T22:31:23.505Z,18.80
2019-03-31T22:33:52.481Z,19.73
2019-03-31T22:36:21.572Z,20.30
2019-03-31T22:38:51.524Z,20.60
2019-03-31T22:41:20.804Z,19.50
2019-03-31T22:43:50.285Z,21.33
2019-03-31T22:46:19.695Z,20.50
2019-03-31T22:48:48.762Z,20.90
2019-03-31T22:51:18.798Z,21.82
2019-03-31T22:53:47.803Z,20.85
2019-03-31T22:56:16.885Z,22.67
2019-03-31T22:58:45.888Z,23.10
2019-03-31T23:01:15.005Z,21.73
2019-03-31T23:03:43.994Z,24.50
2019-03-31T23:06:12.982Z,26.27
2019-03-31T23:08:42.036Z,26.55
2019-03-31T23:11:11.448Z,26.15
2019-03-31T23:13:40.392Z,25.62
2019-03-31T23:16:09.415Z,27.35
2019-03-31T23:18:38.449Z,27.85
2019-03-31T23:21:07.498Z,28.52
2019-03-31T23:23:36.461Z,27.65
2019-03-31T23:26:05.904Z,28.47
2019-03-31T23:28:36.916Z,30.57
2019-03-31T23:31:05.861Z,29.27
2019-03-31T23:33:34.954Z,29.00
2019-03-31T23:36:03.945Z,30.43
2019-03-31T23:38:32.957Z,30.85
2019-03-31T23:41:02.996Z,29.65
2019-03-31T23:43:32.054Z,31.12
2019-03-31T23:46:02.191Z,29.87
2019-03-31T23:48:31.255Z,30.85
2019-03-31T23:51:00.189Z,30.35
2019-03-31T23:53:29.184Z,30.70
2019-03-31T23:55:58.149Z,30.75
2019-03-31T23:58:27.212Z,33.33
